Aeroporto :
LOGIN :

Iscrizione | Disclaimer

   EN    FR    IT 

 










Sommario :    VFR   VFR Marginale   IFR   IFR Intensivo   IFR Molto Intensivo
Visibilità : 
Base nubi : 
>= 8 km
>= 3000ft
5 / 8 km
1000 / 3000 ft
1500m / 5 km
500 / 1000 ft
800 / 1500m
200 / 500 ft
< 800m
< 200 ft
Simboli :   Temporali  Nebbia  Neve Forte  Precipitazioni Forti  Vento > 20 kt
SIGMETs :   Varie  Temporali  Ghiacco  Turbolenza  Onda orograficha  Ceneri Vulcaniche







- Altitudine del aeroporto : 106 ft
- Codice IATA : XDA
- Carte del aeroporto


LFBY - Dax Seyresse

ULTIMO METAR :
  • 200300Z AUTO 29003KT 250V330 8000 // ////// 20/19 Q1013

METARs OBSOLETI :
  • 200230Z AUTO 27004KT 250V310 9000 // ////// 20/19 Q1013
  • 200200Z AUTO 28005KT 250V320 9999 // ////// 20/19 Q1013
  • 200130Z AUTO 25007KT 220V280 9999 // ////// 21/19 Q1013
  • 200100Z AUTO 25005KT 9000 // ////// 21/19 Q1013

Previsioni scadute.
Nessun NOTAM noto per questo aeroporto.
2 SIGMETs conosciuti per la FIR Bordeaux (LFBB) :
 
Temporali affogati
LFBB SIGMET 2 VALID 200245/200500 LFPW
LFBB BORDEAUX FIR/UIR EMBD TS OBS AT 0245Z WI N4230 E00200 - N4245 W00045 - N4430 E00000 - N4415 E00230 - N4230 E00200 TOP FL390 MOV NE 15KT NC=
Temporali affogati
LFBB SIGMET 1 VALID 200100/200400 LFPW
LFBB BORDEAUX FIR/UIR EMBD TS OBS AT 0100Z WI N4515 W00145 - N4600 W00145 - N4615 W00045 - N4545 W00045 - N4515 W00145 TOP FL390 MOV E 20KT NC=



MetMap, La meteo Aeronautica in un colpo d'occhio ! - Copyright ORBIFLY Dicembre 2007 - Disclaimer

ORBIFLY MET'MAP TEAM :

Programmazione e sviluppo : Alexandra Zaïnal
Concezione e sviluppo : Baudouin d'Aumeries
Co-Programmazione e sviluppo : Marc-Olivier Méhu
Supporto tecnico e logistico : Manuel Goepfert
Aiuto per la traduzione : Arnaldo La Scala

Contatto : metmap@orbifly.com




FONTI E CREDITI :

   NOAA